Time;durP1;ratioP1;P1;durP2;ratioP2;P2;SDS_P1;SDS_P2;PMS_P1;PMS_P2;Temp;Humidity;BMP_temperature;BMP_pressure;BME280_temperature;BME280_humidity;BME280_pressure;Samples;Min_cycle;Max_cycle;Signal;HPM_P1;HPM_P2
2022/07/10 00:10:23;;;;;;;5.4;9.7;;;;;;;13.9;100;98630;;;;
2022/07/10 00:21:23;;;;;;;5.4;9.7;;;;;;;14;100;98620;;;;
2022/07/10 00:32:23;;;;;;;5.4;9.7;;;;;;;14;100;98600;;;;
2022/07/10 00:43:23;;;;;;;4.7;7.3;;;;;;;13.9;100;98600;;;;
2022/07/10 00:53:23;;;;;;;4.7;7.3;;;;;;;13.8;100;98590;;;;
2022/07/10 01:03:23;;;;;;;4.7;7.3;;;;;;;13.7;100;98590;;;;
2022/07/10 01:13:23;;;;;;;5.1;7.9;;;;;;;13.8;100;98580;;;;
2022/07/10 01:24:24;;;;;;;5.1;7.9;;;;;;;13.9;100;98570;;;;
2022/07/10 01:34:23;;;;;;;5.1;7.9;;;;;;;13.9;100;98570;;;;
2022/07/10 01:44:23;;;;;;;5.2;9.1;;;;;;;13.8;100;98550;;;;
2022/07/10 01:55:23;;;;;;;5.2;9.1;;;;;;;13.6;100;98540;;;;
2022/07/10 02:06:23;;;;;;;5.2;9.1;;;;;;;13.6;100;98530;;;;
2022/07/10 02:16:23;;;;;;;5.3;7.8;;;;;;;13.5;100;98520;;;;
2022/07/10 02:27:23;;;;;;;5.3;7.8;;;;;;;13.6;100;98510;;;;
2022/07/10 02:38:23;;;;;;;5.6;9.6;;;;;;;13.8;100;98510;;;;
2022/07/10 02:48:23;;;;;;;5.6;9.6;;;;;;;13.9;100;98500;;;;
2022/07/10 02:59:23;;;;;;;5.6;9.6;;;;;;;14;100;98500;;;;
2022/07/10 03:09:23;;;;;;;5.5;11.1;;;;;;;14.3;100;98500;;;;
2022/07/10 03:20:23;;;;;;;5.5;11.1;;;;;;;14.4;100;98490;;;;
2022/07/10 03:30:23;;;;;;;5.5;11.1;;;;;;;14.4;100;98480;;;;
2022/07/10 03:40:23;;;;;;;5.4;9.5;;;;;;;14.7;100;98490;;;;
2022/07/10 03:51:23;;;;;;;5.4;9.5;;;;;;;14.9;100;98480;;;;
2022/07/10 04:01:23;;;;;;;5.4;9.5;;;;;;;15;100;98490;;;;
2022/07/10 04:12:23;;;;;;;4.1;6.7;;;;;;;15.2;100;98480;;;;
2022/07/10 04:22:23;;;;;;;4.1;6.7;;;;;;;15.3;100;98470;;;;
2022/07/10 04:32:23;;;;;;;4.1;6.7;;;;;;;15.5;100;98470;;;;
2022/07/10 04:42:23;;;;;;;3.9;7.8;;;;;;;15.5;100;98480;;;;
2022/07/10 04:53:23;;;;;;;3.9;7.8;;;;;;;15.5;100;98470;;;;
2022/07/10 05:04:23;;;;;;;3.9;7.8;;;;;;;15.7;100;98470;;;;
2022/07/10 05:15:23;;;;;;;3.7;6.2;;;;;;;15.6;100;98470;;;;
2022/07/10 05:26:23;;;;;;;3.7;6.2;;;;;;;15.5;100;98470;;;;
2022/07/10 05:36:23;;;;;;;3.7;6.2;;;;;;;15.2;100;98480;;;;
2022/07/10 05:46:23;;;;;;;3.8;11.3;;;;;;;15.2;100;98480;;;;
2022/07/10 05:57:23;;;;;;;3.8;11.3;;;;;;;15.3;100;98480;;;;
2022/07/10 06:08:23;;;;;;;4.4;8.4;;;;;;;15;100;98480;;;;
2022/07/10 06:19:23;;;;;;;4.4;8.4;;;;;;;15.4;100;98490;;;;
2022/07/10 06:29:23;;;;;;;4.4;8.4;;;;;;;16;100;98480;;;;
2022/07/10 06:39:23;;;;;;;4.6;7.3;;;;;;;16.6;100;98470;;;;
2022/07/10 06:50:23;;;;;;;4.6;7.3;;;;;;;17;100;98470;;;;
2022/07/10 07:00:23;;;;;;;4.6;7.3;;;;;;;17.1;100;98480;;;;
2022/07/10 07:11:23;;;;;;;3;6.8;;;;;;;18;100;98480;;;;
2022/07/10 07:32:23;;;;;;;3;6.8;;;;;;;18.2;100;98490;;;;
2022/07/10 07:43:23;;;;;;;1.8;3.6;;;;;;;18.5;100;98480;;;;
2022/07/10 07:53:23;;;;;;;1.8;3.6;;;;;;;18.4;100;98490;;;;
2022/07/10 08:03:23;;;;;;;1.8;3.6;;;;;;;18.5;100;98490;;;;
2022/07/10 08:13:23;;;;;;;2.3;5.5;;;;;;;18.4;100;98490;;;;
2022/07/10 08:23:23;;;;;;;2.3;5.5;;;;;;;18.8;100;98490;;;;
2022/07/10 08:33:23;;;;;;;2.3;5.5;;;;;;;18.6;100;98490;;;;
2022/07/10 08:44:23;;;;;;;1.4;4.3;;;;;;;17.7;100;98510;;;;
2022/07/10 08:54:23;;;;;;;1.4;4.3;;;;;;;17.3;100;98510;;;;
2022/07/10 09:04:23;;;;;;;1.4;4.3;;;;;;;18.4;100;98510;;;;
2022/07/10 09:15:23;;;;;;;1.5;3.9;;;;;;;18.2;100;98500;;;;
2022/07/10 09:25:23;;;;;;;1.5;3.9;;;;;;;17.5;100;98520;;;;
2022/07/10 09:36:23;;;;;;;1.5;3.9;;;;;;;17.5;100;98520;;;;
2022/07/10 09:47:23;;;;;;;1.4;4.3;;;;;;;17.7;100;98520;;;;
2022/07/10 09:58:23;;;;;;;1.4;4.3;;;;;;;19;100;98510;;;;
2022/07/10 10:08:23;;;;;;;1.8;4.7;;;;;;;19.3;100;98510;;;;
2022/07/10 10:29:23;;;;;;;1.8;4.7;;;;;;;19.5;100;98490;;;;
2022/07/10 10:39:23;;;;;;;1.5;4.4;;;;;;;18.8;100;98500;;;;
2022/07/10 10:49:24;;;;;;;1.5;4.4;;;;;;;18.5;100;98510;;;;
2022/07/10 10:59:23;;;;;;;1.5;4.4;;;;;;;18.2;100;98500;;;;
2022/07/10 11:10:23;;;;;;;2.2;5.3;;;;;;;18.9;100;98500;;;;
2022/07/10 11:20:23;;;;;;;2.2;5.3;;;;;;;19.5;95.5;98490;;;;
2022/07/10 11:31:23;;;;;;;2.2;5.3;;;;;;;19.8;95.3;98490;;;;
2022/07/10 11:41:23;;;;;;;1.6;4.3;;;;;;;19.2;95.6;98490;;;;
2022/07/10 11:51:24;;;;;;;1.6;4.3;;;;;;;18.9;96.4;98490;;;;
2022/07/10 12:01:23;;;;;;;1.6;4.3;;;;;;;18.3;100;98500;;;;
2022/07/10 12:11:23;;;;;;;1.8;4.3;;;;;;;18.9;99.4;98490;;;;
2022/07/10 12:21:23;;;;;;;1.8;4.3;;;;;;;18.9;94.8;98490;;;;
2022/07/10 12:32:23;;;;;;;1.8;4.3;;;;;;;19.2;91.1;98490;;;;
2022/07/10 12:42:23;;;;;;;1.5;6.7;;;;;;;19.6;90.4;98490;;;;
2022/07/10 12:52:23;;;;;;;1.5;6.7;;;;;;;19.6;87.6;98490;;;;
2022/07/10 13:03:24;;;;;;;1.5;6.7;;;;;;;19.3;90.1;98500;;;;
2022/07/10 13:13:23;;;;;;;1.3;3.6;;;;;;;18.7;96;98510;;;;
2022/07/10 13:24:23;;;;;;;1.3;3.6;;;;;;;18.9;96.1;98500;;;;
2022/07/10 13:34:23;;;;;;;1.3;3.6;;;;;;;19.1;95.7;98520;;;;
2022/07/10 13:45:24;;;;;;;1.3;3.2;;;;;;;18.8;96.3;98520;;;;
2022/07/10 13:55:23;;;;;;;1.3;3.2;;;;;;;19.2;89.2;98510;;;;
2022/07/10 14:05:23;;;;;;;1.3;3.2;;;;;;;20.1;83.3;98510;;;;
2022/07/10 14:15:23;;;;;;;1.1;3.5;;;;;;;19.2;79.4;98510;;;;
2022/07/10 14:25:23;;;;;;;1.1;3.5;;;;;;;19;90;98520;;;;
2022/07/10 14:35:23;;;;;;;1.1;3.5;;;;;;;20.4;81.9;98530;;;;
2022/07/10 14:46:23;;;;;;;0.8;3.2;;;;;;;19.8;82.4;98530;;;;
2022/07/10 14:57:23;;;;;;;0.8;3.2;;;;;;;19.3;79.9;98540;;;;
2022/07/10 15:07:23;;;;;;;1;4;;;;;;;19.1;86;98540;;;;
2022/07/10 15:18:23;;;;;;;1;4;;;;;;;19.2;87.6;98540;;;;
2022/07/10 15:28:23;;;;;;;1;4;;;;;;;18.9;89.3;98540;;;;
2022/07/10 15:39:24;;;;;;;0.9;2.7;;;;;;;18.5;91.1;98540;;;;
2022/07/10 15:50:23;;;;;;;0.9;2.7;;;;;;;18.7;91.6;98540;;;;
2022/07/10 16:01:23;;;;;;;0.9;2.7;;;;;;;18.4;90.8;98540;;;;
2022/07/10 16:12:23;;;;;;;0.9;2.9;;;;;;;21;85.1;98550;;;;
2022/07/10 16:22:23;;;;;;;0.9;2.9;;;;;;;20.1;86.4;98570;;;;
2022/07/10 16:32:23;;;;;;;0.9;2.9;;;;;;;19;90.7;98560;;;;
2022/07/10 16:43:24;;;;;;;1.3;3.5;;;;;;;18.9;93.8;98570;;;;
2022/07/10 16:54:23;;;;;;;1.3;3.5;;;;;;;17.6;96.4;98590;;;;
2022/07/10 17:05:23;;;;;;;1.3;3.5;;;;;;;16.4;100;98590;;;;
2022/07/10 17:16:23;;;;;;;1.6;5.6;;;;;;;16.5;100;98580;;;;
2022/07/10 17:26:23;;;;;;;1.6;5.6;;;;;;;16.3;100;98590;;;;
2022/07/10 17:37:23;;;;;;;1.1;3.1;;;;;;;16.2;100;98590;;;;
2022/07/10 17:47:23;;;;;;;1.1;3.1;;;;;;;15.8;100;98600;;;;
2022/07/10 17:57:23;;;;;;;1.1;3.1;;;;;;;15.7;100;98610;;;;
2022/07/10 18:08:25;;;;;;;1.1;3;;;;;;;15.3;100;98620;;;;
2022/07/10 18:18:23;;;;;;;1.1;3;;;;;;;15.1;100;98620;;;;
2022/07/10 18:28:23;;;;;;;1.1;3;;;;;;;14.9;100;98620;;;;
2022/07/10 18:39:23;;;;;;;0.9;2.3;;;;;;;14.7;100;98640;;;;
2022/07/10 18:49:23;;;;;;;0.9;2.3;;;;;;;14.5;100;98650;;;;
2022/07/10 18:59:23;;;;;;;0.9;2.3;;;;;;;14.3;100;98660;;;;
2022/07/10 19:09:23;;;;;;;1;3;;;;;;;14.2;100;98670;;;;
2022/07/10 19:20:23;;;;;;;1;3;;;;;;;14.1;100;98670;;;;
2022/07/10 19:30:23;;;;;;;1;3;;;;;;;14.1;100;98670;;;;
2022/07/10 19:40:23;;;;;;;1.5;2.9;;;;;;;14;100;98680;;;;
2022/07/10 19:50:23;;;;;;;1.5;2.9;;;;;;;14.1;100;98680;;;;
2022/07/10 20:01:23;;;;;;;1.5;2.9;;;;;;;14;100;98680;;;;
2022/07/10 20:11:23;;;;;;;2;4.8;;;;;;;13.9;100;98690;;;;
2022/07/10 20:21:23;;;;;;;2;4.8;;;;;;;13.9;100;98690;;;;
2022/07/10 20:32:23;;;;;;;2;4.8;;;;;;;13.8;100;98690;;;;
2022/07/10 20:42:23;;;;;;;2.3;5.1;;;;;;;13.8;100;98700;;;;
2022/07/10 20:53:23;;;;;;;2.3;5.1;;;;;;;13.7;100;98690;;;;
2022/07/10 21:03:23;;;;;;;2.3;5.1;;;;;;;13.7;100;98690;;;;
2022/07/10 21:13:26;;;;;;;2.6;4.8;;;;;;;13.6;100;98690;;;;
2022/07/10 21:23:23;;;;;;;2.6;4.8;;;;;;;13.6;100;98690;;;;
2022/07/10 21:34:23;;;;;;;2.6;4.8;;;;;;;13.5;100;98690;;;;
2022/07/10 21:44:23;;;;;;;2.6;6;;;;;;;13.5;100;98690;;;;
2022/07/10 21:55:24;;;;;;;2.6;6;;;;;;;13.5;100;98690;;;;
2022/07/10 22:05:23;;;;;;;2.6;6;;;;;;;13.4;100;98680;;;;
2022/07/10 22:16:23;;;;;;;3.2;7.1;;;;;;;13.5;100;98680;;;;
2022/07/10 22:27:23;;;;;;;3.2;7.1;;;;;;;13.4;100;98680;;;;
2022/07/10 22:37:23;;;;;;;2.2;5.3;;;;;;;13.5;100;98690;;;;
2022/07/10 22:47:23;;;;;;;2.2;5.3;;;;;;;13.3;100;98680;;;;
2022/07/10 22:57:23;;;;;;;2.2;5.3;;;;;;;13.3;100;98670;;;;
2022/07/10 23:08:23;;;;;;;2.7;9.3;;;;;;;13.3;100;98670;;;;
2022/07/10 23:19:23;;;;;;;2.7;9.3;;;;;;;13.4;100;98660;;;;
2022/07/10 23:30:23;;;;;;;2.7;9.3;;;;;;;13.4;100;98670;;;;
2022/07/10 23:41:23;;;;;;;4.2;9.2;;;;;;;13.4;100;98670;;;;
2022/07/10 23:51:23;;;;;;;4.2;9.2;;;;;;;13.4;100;98680;;;;
